Time;durP1;ratioP1;P1;durP2;ratioP2;P2;SDS_P1;SDS_P2;PMS_P1;PMS_P2;Temp;Humidity;BMP_temperature;BMP_pressure;BME280_temperature;BME280_humidity;BME280_pressure;Samples;Min_cycle;Max_cycle;Signal;HPM_P1;HPM_P2
2024/03/03 00:02:07;;;;;;;;;;;;;;;26.93;38.73;92420.81;5057892;28;7150;-55
2024/03/03 00:04:35;;;;;;;;;;;;;;;26.94;38.59;92411.28;5041519;28;9066;-56
2024/03/03 00:07:16;;;;;;;;;;;;;;;26.92;38.40;92415.88;5059304;28;8219;-55
2024/03/03 00:09:49;;;;;;;;;;;;;;;26.92;38.92;92416.63;5059506;28;9090;-55
2024/03/03 00:12:47;;;;;;;;;;;;;;;26.90;38.64;92414.41;5053057;28;7035;-56
2024/03/03 00:15:21;;;;;;;;;;;;;;;26.88;38.47;92400.44;5088493;28;7863;-56
2024/03/03 00:18:03;;;;;;;;;;;;;;;26.90;38.61;92391.63;5062583;28;6898;-56
2024/03/03 00:20:32;;;;;;;;;;;;;;;26.90;38.92;92399.91;5059831;28;9050;-55
2024/03/03 00:23:03;;;;;;;;;;;;;;;26.92;38.40;92400.78;5092068;28;8077;-55
2024/03/03 00:25:29;;;;;;;;;;;;;;;26.92;38.58;92406.28;5066923;28;7640;-55
2024/03/03 00:28:06;;;;;;;;;;;;;;;26.91;38.14;92398.59;5076782;28;9222;-55
2024/03/03 00:30:36;;;;;;;;;;;;;;;26.92;38.37;92410.38;5078442;28;9025;-55
2024/03/03 00:33:03;;;;;;;;;;;;;;;26.91;38.25;92406.88;5058355;28;8270;-55
2024/03/03 00:35:29;;;;;;;;;;;;;;;26.91;38.40;92398.59;5060705;28;7028;-55
2024/03/03 00:38:03;;;;;;;;;;;;;;;26.91;38.33;92387.56;5075847;28;7014;-55
2024/03/03 00:40:32;;;;;;;;;;;;;;;26.87;38.36;92387.97;5066421;28;7102;-55
2024/03/03 00:43:10;;;;;;;;;;;;;;;26.87;38.60;92370.69;5076400;28;7446;-55
2024/03/03 00:45:36;;;;;;;;;;;;;;;26.88;38.14;92385.94;5051879;28;7042;-55
2024/03/03 00:48:26;;;;;;;;;;;;;;;26.89;38.07;92374.34;5078318;28;9279;-55
2024/03/03 00:51:12;;;;;;;;;;;;;;;26.90;37.85;92386.81;5063067;28;7341;-55
2024/03/03 00:53:50;;;;;;;;;;;;;;;26.88;38.02;92378.38;5074568;28;7275;-55
2024/03/03 00:56:18;;;;;;;;;;;;;;;26.87;37.49;92382.47;5054678;28;7214;-55
2024/03/03 00:58:48;;;;;;;;;;;;;;;26.90;37.94;92384.06;5058236;28;9172;-55
2024/03/03 01:01:52;;;;;;;;;;;;;;;26.90;37.85;92386.81;5053223;28;7290;-55
2024/03/03 01:04:50;;;;;;;;;;;;;;;26.90;37.83;92397.84;5034573;28;9009;-56
2024/03/03 01:07:52;;;;;;;;;;;;;;;26.89;37.89;92388.13;5019580;28;9448;-55
2024/03/03 01:10:27;;;;;;;;;;;;;;;26.89;37.57;92377.09;4939589;28;7082;-56
2024/03/03 01:12:53;;;;;;;;;;;;;;;26.87;37.41;92365.16;4939533;28;7100;-55
2024/03/03 01:15:19;;;;;;;;;;;;;;;26.89;37.67;92370.84;4952952;28;7132;-55
2024/03/03 01:17:47;;;;;;;;;;;;;;;26.88;37.95;92369.41;4946138;28;7260;-55
2024/03/03 01:20:13;;;;;;;;;;;;;;;26.87;37.38;92354.13;4945605;28;7001;-55
2024/03/03 01:22:51;;;;;;;;;;;;;;;26.85;37.59;92360.22;4936372;28;7183;-55
2024/03/03 01:25:19;;;;;;;;;;;;;;;26.87;37.29;92359.66;4946814;28;7741;-55
2024/03/03 01:28:00;;;;;;;;;;;;;;;26.86;37.57;92347.88;4955444;28;7123;-55
2024/03/03 01:30:26;;;;;;;;;;;;;;;26.85;37.62;92345.69;4931149;28;7024;-55
2024/03/03 01:32:54;;;;;;;;;;;;;;;26.87;37.72;92356.91;4939935;28;8824;-55
2024/03/03 01:35:22;;;;;;;;;;;;;;;26.85;37.36;92348.47;4946560;28;7091;-55
2024/03/03 01:38:18;;;;;;;;;;;;;;;26.84;37.54;92342.22;4961494;28;7241;-55
2024/03/03 01:40:55;;;;;;;;;;;;;;;26.88;37.58;92350.09;4954806;28;7031;-55
2024/03/03 01:43:23;;;;;;;;;;;;;;;26.88;37.27;92337.00;4951974;28;7321;-55
2024/03/03 01:46:02;;;;;;;;;;;;;;;26.87;37.45;92341.09;4959334;28;7246;-56
2024/03/03 01:48:40;;;;;;;;;;;;;;;26.89;37.30;92343.25;4974367;28;7824;-55
2024/03/03 01:51:25;;;;;;;;;;;;;;;26.90;37.15;92331.66;4958270;28;7278;-56
2024/03/03 01:54:01;;;;;;;;;;;;;;;26.87;37.04;92340.34;4967919;28;7355;-56
2024/03/03 01:56:43;;;;;;;;;;;;;;;26.86;37.50;92342.38;4981711;28;9418;-55
2024/03/03 01:59:19;;;;;;;;;;;;;;;26.85;37.14;92331.91;4965316;28;9349;-55
2024/03/03 02:02:03;;;;;;;;;;;;;;;26.84;37.32;92336.69;4974573;28;9031;-55
2024/03/03 02:04:54;;;;;;;;;;;;;;;26.87;37.24;92348.63;4974770;28;8745;-55
2024/03/03 02:07:33;;;;;;;;;;;;;;;26.84;37.19;92341.47;4973603;28;7113;-55
2024/03/03 02:10:09;;;;;;;;;;;;;;;26.84;37.19;92341.47;4957883;28;7042;-55
2024/03/03 02:13:23;;;;;;;;;;;;;;;26.83;37.20;92340.75;4974299;28;7050;-56
2024/03/03 02:16:17;;;;;;;;;;;;;;;26.86;37.29;92336.13;4982404;28;9086;-55
2024/03/03 02:18:57;;;;;;;;;;;;;;;26.83;36.91;92329.72;5055979;28;7091;-55
2024/03/03 02:21:48;;;;;;;;;;;;;;;26.84;37.05;92341.47;5080133;28;7024;-55
2024/03/03 02:24:40;;;;;;;;;;;;;;;26.85;37.18;92334.66;5057364;28;7150;-56
2024/03/03 02:27:06;;;;;;;;;;;;;;;26.83;37.05;92337.25;4992941;28;8942;-56
2024/03/03 02:29:33;;;;;;;;;;;;;;;26.81;37.04;92334.34;4998817;28;9526;-56
2024/03/03 02:31:59;;;;;;;;;;;;;;;26.81;36.64;92339.88;5023797;28;7031;-56
2024/03/03 02:34:25;;;;;;;;;;;;;;;26.81;36.74;92328.81;5004354;28;8949;-56
2024/03/03 02:37:01;;;;;;;;;;;;;;;26.78;36.73;92327.19;4988461;28;7041;-56
2024/03/03 02:39:46;;;;;;;;;;;;;;;26.77;37.09;92323.00;4997856;28;6991;-56
2024/03/03 02:42:12;;;;;;;;;;;;;;;26.77;36.79;92328.50;5001608;28;8033;-56
2024/03/03 02:44:55;;;;;;;;;;;;;;;26.76;36.90;92327.03;5003700;28;8187;-56
2024/03/03 02:48:06;;;;;;;;;;;;;;;26.75;37.00;92331.81;5000397;28;7228;-56
2024/03/03 02:50:48;;;;;;;;;;;;;;;26.76;36.93;92321.53;4955446;28;7013;-56
2024/03/03 02:53:24;;;;;;;;;;;;;;;26.74;36.78;92324.84;4954956;28;7235;-56
2024/03/03 02:56:08;;;;;;;;;;;;;;;26.78;36.78;92318.91;4953812;28;9493;-56
2024/03/03 02:58:34;;;;;;;;;;;;;;;26.77;37.08;92314.72;4964115;28;7072;-56
2024/03/03 03:01:36;;;;;;;;;;;;;;;26.77;36.83;92317.47;4958714;28;7236;-56
2024/03/03 03:04:48;;;;;;;;;;;;;;;26.77;37.17;92326.47;4959935;28;9089;-56
2024/03/03 03:07:30;;;;;;;;;;;;;;;26.75;37.14;92317.31;4951168;28;7051;-56
2024/03/03 03:09:57;;;;;;;;;;;;;;;26.75;36.53;92311.81;4955739;28;7031;-56
2024/03/03 03:12:54;;;;;;;;;;;;;;;26.78;37.04;92313.41;4960815;28;7183;-56
2024/03/03 03:15:35;;;;;;;;;;;;;;;26.78;36.86;92321.69;4897005;29;7073;-55
2024/03/03 03:18:09;;;;;;;;;;;;;;;26.74;36.73;92315.84;4903893;29;9462;-56
2024/03/03 03:21:10;;;;;;;;;;;;;;;26.73;36.76;92322.66;4908505;29;9448;-56
2024/03/03 03:23:37;;;;;;;;;;;;;;;26.72;36.59;92321.91;4896326;29;7260;-55
2024/03/03 03:26:05;;;;;;;;;;;;;;;26.74;36.84;92315.84;4904645;29;8738;-56
2024/03/03 03:28:31;;;;;;;;;;;;;;;26.73;37.00;92323.38;4889788;29;9047;-56
2024/03/03 03:30:57;;;;;;;;;;;;;;;26.71;37.11;92312.16;4898095;29;7242;-56
2024/03/03 03:33:23;;;;;;;;;;;;;;;26.74;36.65;92322.09;4908377;29;7117;-56
2024/03/03 03:35:51;;;;;;;;;;;;;;;26.73;36.09;92322.66;4908529;29;7230;-37
2024/03/03 03:38:22;;;;;;;;;;;;;;;26.74;36.88;92330.38;4899720;29;9467;-37
2024/03/03 03:40:57;;;;;;;;;;;;;;;26.73;36.65;92322.66;4899354;29;7028;-37
2024/03/03 03:43:23;;;;;;;;;;;;;;;26.72;37.00;92321.16;4917759;28;9054;-38
2024/03/03 03:45:51;;;;;;;;;;;;;;;26.73;36.27;92317.16;4972008;28;7357;-38
2024/03/03 03:48:17;;;;;;;;;;;;;;;26.72;36.54;92321.16;4954823;28;9944;-38
2024/03/03 03:50:47;;;;;;;;;;;;;;;26.73;36.74;92328.19;4993051;28;8812;-37
2024/03/03 03:53:20;;;;;;;;;;;;;;;26.75;36.29;92320.78;5056157;28;8729;-38
2024/03/03 03:55:47;;;;;;;;;;;;;;;26.73;36.23;92330.94;5081212;28;7061;-37
2024/03/03 03:58:23;;;;;;;;;;;;;;;26.74;36.80;92330.38;5066992;28;7132;-38
2024/03/03 04:01:04;;;;;;;;;;;;;;;26.74;36.63;92321.34;5078335;28;7102;-38
2024/03/03 04:03:45;;;;;;;;;;;;;;;26.72;36.18;92330.19;5057994;28;8701;-37
2024/03/03 04:06:14;;;;;;;;;;;;;;;26.72;36.54;92315.66;5072483;28;9378;-37
2024/03/03 04:08:47;;;;;;;;;;;;;;;26.73;36.29;92323.38;5068390;28;7028;-37
2024/03/03 04:11:14;;;;;;;;;;;;;;;26.73;36.17;92309.59;5078232;28;8934;-37
2024/03/03 04:13:50;;;;;;;;;;;;;;;26.74;36.70;92313.09;5075002;28;9309;-38
2024/03/03 04:16:19;;;;;;;;;;;;;;;26.72;35.86;92310.88;5067835;28;7052;-37
2024/03/03 04:18:53;;;;;;;;;;;;;;;26.68;36.42;92305.03;5067024;28;7499;-38
2024/03/03 04:21:20;;;;;;;;;;;;;;;26.72;36.31;92307.38;5075921;28;7262;-38
2024/03/03 04:23:45;;;;;;;;;;;;;;;26.72;36.71;92305.34;5078733;28;7847;-37
2024/03/03 04:26:18;;;;;;;;;;;;;;;26.71;36.25;92306.66;5079297;28;7013;-37
2024/03/03 04:28:45;;;;;;;;;;;;;;;26.69;36.73;92308.50;5059962;28;8715;-38
2024/03/03 04:31:13;;;;;;;;;;;;;;;26.69;36.21;92306.47;5085601;28;9149;-37
2024/03/03 04:33:42;;;;;;;;;;;;;;;26.70;36.36;92307.22;5057303;28;7790;-37
2024/03/03 04:36:14;;;;;;;;;;;;;;;26.70;36.40;92307.22;5076824;28;7262;-37
2024/03/03 04:38:43;;;;;;;;;;;;;;;26.69;36.42;92306.47;5077826;28;9079;-37
2024/03/03 04:41:18;;;;;;;;;;;;;;;26.68;36.01;92307.06;5073006;28;7111;-37
2024/03/03 04:43:45;;;;;;;;;;;;;;;26.68;36.33;92310.56;5054524;28;8204;-38
2024/03/03 04:46:19;;;;;;;;;;;;;;;26.68;36.22;92302.28;5080673;28;7042;-39
2024/03/03 04:48:50;;;;;;;;;;;;;;;26.68;36.67;92301.53;5069548;28;8912;-39
2024/03/03 04:51:16;;;;;;;;;;;;;;;26.67;36.28;92303.56;5054395;28;9337;-39
2024/03/03 04:53:44;;;;;;;;;;;;;;;26.68;36.08;92302.28;5069333;28;9493;-39
2024/03/03 04:56:17;;;;;;;;;;;;;;;26.67;35.73;92309.09;5069068;28;7052;-39
2024/03/03 04:58:48;;;;;;;;;;;;;;;26.69;35.93;92308.50;5069967;28;7048;-39
2024/03/03 05:01:17;;;;;;;;;;;;;;;26.69;36.33;92300.22;5077591;28;7296;-39
2024/03/03 05:03:45;;;;;;;;;;;;;;;26.69;36.16;92311.25;5071339;28;7240;-39
2024/03/03 05:06:13;;;;;;;;;;;;;;;26.66;36.14;92310.41;5059398;28;9141;-39
2024/03/03 05:08:40;;;;;;;;;;;;;;;26.67;36.29;92311.84;5058218;28;7173;-39
2024/03/03 05:11:25;;;;;;;;;;;;;;;26.69;35.95;92303.72;5072429;28;7802;-39
2024/03/03 05:14:28;;;;;;;;;;;;;;;26.71;36.19;92303.16;5068801;28;9062;-39
2024/03/03 05:16:58;;;;;;;;;;;;;;;26.69;35.54;92311.25;5083482;28;7022;-39
2024/03/03 05:19:25;;;;;;;;;;;;;;;26.70;35.88;92312.75;5073598;28;7337;-39
2024/03/03 05:21:52;;;;;;;;;;;;;;;26.68;35.79;92318.09;5080232;28;7106;-40
2024/03/03 05:24:18;;;;;;;;;;;;;;;26.65;35.81;92305.44;5073867;28;8815;-39
2024/03/03 05:26:45;;;;;;;;;;;;;;;26.67;35.91;92300.06;5059567;28;7057;-39
2024/03/03 05:29:10;;;;;;;;;;;;;;;26.64;35.96;92307.44;5063540;28;7028;-39
2024/03/03 05:31:41;;;;;;;;;;;;;;;26.65;35.23;92310.94;5065841;28;7253;-40
2024/03/03 05:34:15;;;;;;;;;;;;;;;26.65;35.96;92316.47;5075986;28;9009;-39
2024/03/03 05:36:45;;;;;;;;;;;;;;;26.65;36.01;92310.94;5049500;28;7047;-39
2024/03/03 05:39:17;;;;;;;;;;;;;;;26.63;35.99;92314.28;5054863;28;9046;-38
2024/03/03 05:42:17;;;;;;;;;;;;;;;26.63;35.70;92311.53;5083642;28;8989;-39
2024/03/03 05:44:47;;;;;;;;;;;;;;;26.63;36.08;92299.75;5062253;28;7145;-39
2024/03/03 05:47:27;;;;;;;;;;;;;;;26.62;36.31;92295.56;5059522;28;8648;-39
2024/03/03 05:50:00;;;;;;;;;;;;;;;26.62;36.54;92303.81;5087835;28;9152;-38
2024/03/03 05:52:30;;;;;;;;;;;;;;;26.59;35.91;92297.41;5078962;28;7442;-39
2024/03/03 05:54:57;;;;;;;;;;;;;;;26.60;36.69;92309.19;5057601;28;8283;-56
2024/03/03 05:57:31;;;;;;;;;;;;;;;26.60;35.95;92303.66;5046345;28;7279;-56
2024/03/03 06:00:05;;;;;;;;;;;;;;;26.57;36.74;92311.03;5051525;28;7045;-56
2024/03/03 06:03:00;;;;;;;;;;;;;;;26.59;36.21;92307.69;5070441;28;9162;-37
2024/03/03 06:05:27;;;;;;;;;;;;;;;26.60;36.38;92298.16;5053158;28;7006;-37
2024/03/03 06:07:55;;;;;;;;;;;;;;;26.62;36.49;92295.56;5091057;28;7103;-37
2024/03/03 06:10:47;;;;;;;;;;;;;;;26.61;36.14;92307.88;5057360;28;7192;-37
2024/03/03 06:13:14;;;;;;;;;;;;;;;26.58;36.62;92304.22;5067375;28;8943;-37
2024/03/03 06:16:26;;;;;;;;;;;;;;;26.60;36.72;92298.16;5053755;28;9404;-37
2024/03/03 06:18:52;;;;;;;;;;;;;;;26.58;36.59;92289.69;5032519;28;7270;-37
2024/03/03 06:21:20;;;;;;;;;;;;;;;26.60;36.99;92290.59;5021576;28;9400;-37
2024/03/03 06:24:14;;;;;;;;;;;;;;;26.60;36.56;92293.34;5023909;28;7306;-37
2024/03/03 06:27:01;;;;;;;;;;;;;;;26.57;36.63;92291.00;4957484;28;7225;-37
2024/03/03 06:29:54;;;;;;;;;;;;;;;26.61;36.57;92294.81;4973086;28;7279;-37
2024/03/03 06:32:20;;;;;;;;;;;;;;;26.60;36.85;92296.09;4973391;28;8559;-37
2024/03/03 06:34:49;;;;;;;;;;;;;;;26.58;36.58;92301.44;4978093;28;7215;-37
2024/03/03 06:37:31;;;;;;;;;;;;;;;26.58;36.94;92300.72;4987554;28;9082;-37
2024/03/03 06:40:27;;;;;;;;;;;;;;;26.61;36.59;92302.34;4965085;28;7248;-37
2024/03/03 06:43:01;;;;;;;;;;;;;;;26.58;36.02;92290.41;4900450;29;7098;-37
2024/03/03 06:45:48;;;;;;;;;;;;;;;26.58;36.26;92295.94;4896520;29;7226;-37
2024/03/03 06:48:17;;;;;;;;;;;;;;;26.57;36.63;92283.47;4905706;29;6988;-37
2024/03/03 06:51:01;;;;;;;;;;;;;;;26.58;36.43;92300.72;4900340;29;8402;-37
2024/03/03 06:53:41;;;;;;;;;;;;;;;26.57;36.70;92286.22;4885192;29;9465;-37
2024/03/03 06:56:17;;;;;;;;;;;;;;;26.56;36.78;92293.03;4915298;29;7338;-37
2024/03/03 06:59:00;;;;;;;;;;;;;;;26.55;36.36;92280.53;4896081;29;7101;-37
2024/03/03 07:01:38;;;;;;;;;;;;;;;26.60;36.53;92281.59;4916846;29;7274;-38
2024/03/03 07:06:54;;;;;;;;;;;;;;;26.56;36.71;92284.00;4948941;28;7312;-37
2024/03/03 07:09:31;;;;;;;;;;;;;;;26.59;36.41;92289.13;4941276;28;7055;-37
2024/03/03 07:12:26;;;;;;;;;;;;;;;26.59;36.02;92300.16;4954050;29;7285;-37
2024/03/03 07:15:29;;;;;;;;;;;;;;;26.58;36.06;92297.97;4957226;28;7120;-37
2024/03/03 07:18:27;;;;;;;;;;;;;;;26.57;36.25;92294.50;4936794;29;7846;-38
2024/03/03 07:20:53;;;;;;;;;;;;;;;26.58;36.74;92290.41;4951231;28;8786;-37
2024/03/03 07:23:39;;;;;;;;;;;;;;;26.58;36.23;92290.41;4966232;28;7633;-37
2024/03/03 07:26:07;;;;;;;;;;;;;;;26.56;36.82;92286.78;4973226;28;7376;-37
2024/03/03 07:28:33;;;;;;;;;;;;;;;26.57;36.61;92282.72;4975891;28;9220;-37
2024/03/03 07:30:59;;;;;;;;;;;;;;;26.56;36.63;92282.00;4972267;28;7182;-37
2024/03/03 07:33:25;;;;;;;;;;;;;;;26.57;36.78;92288.25;4987958;28;7051;-38
2024/03/03 07:35:51;;;;;;;;;;;;;;;26.56;36.72;92301.28;4966072;28;7292;-38
2024/03/03 07:38:20;;;;;;;;;;;;;;;26.55;36.78;92286.06;4984911;28;8761;-37
2024/03/03 07:40:49;;;;;;;;;;;;;;;26.60;36.67;92293.34;4966344;28;9052;-37
2024/03/03 07:43:27;;;;;;;;;;;;;;;26.60;37.16;92287.13;4962663;28;9218;-36
2024/03/03 07:45:55;;;;;;;;;;;;;;;26.57;37.30;92285.47;4970853;28;7304;-36
2024/03/03 07:48:20;;;;;;;;;;;;;;;26.58;36.72;92284.91;4971455;28;9003;-36
2024/03/03 07:50:47;;;;;;;;;;;;;;;26.61;36.96;92291.31;4978661;28;7073;-36
2024/03/03 07:53:14;;;;;;;;;;;;;;;26.59;37.12;92300.16;5067335;28;9014;-37
2024/03/03 07:55:49;;;;;;;;;;;;;;;26.57;36.94;92288.25;5077021;28;8867;-37
2024/03/03 07:58:17;;;;;;;;;;;;;;;26.61;37.01;92302.34;5082034;28;7217;-37
2024/03/03 08:00:43;;;;;;;;;;;;;;;26.60;37.28;92282.31;5081430;28;7492;-36
2024/03/03 08:03:10;;;;;;;;;;;;;;;26.60;37.51;92298.16;5069829;28;8379;-37
2024/03/03 08:05:50;;;;;;;;;;;;;;;26.64;37.26;92315.00;5068008;28;7661;-37
2024/03/03 08:08:28;;;;;;;;;;;;;;;26.62;37.38;92309.34;5073425;28;9444;-37
2024/03/03 08:10:59;;;;;;;;;;;;;;;26.66;36.82;92312.41;5075896;28;8995;-37
2024/03/03 08:13:50;;;;;;;;;;;;;;;26.66;37.31;92307.63;5048823;28;7105;-37
2024/03/03 08:16:16;;;;;;;;;;;;;;;26.65;37.15;92308.19;5057651;28;7407;-37
2024/03/03 08:18:55;;;;;;;;;;;;;;;26.65;37.20;92308.91;5077227;28;9033;-37
2024/03/03 08:21:22;;;;;;;;;;;;;;;26.63;37.24;92297.72;5070225;28;7107;-37
2024/03/03 08:24:05;;;;;;;;;;;;;;;26.63;37.44;92302.50;5052131;28;9063;-42
2024/03/03 08:26:35;;;;;;;;;;;;;;;26.66;36.95;92304.88;5085754;28;7269;-55
2024/03/03 08:29:33;;;;;;;;;;;;;;;26.66;37.17;92296.59;5073637;28;9460;-55
2024/03/03 08:31:59;;;;;;;;;;;;;;;26.68;37.10;92290.50;5058829;28;7520;-55
2024/03/03 08:34:27;;;;;;;;;;;;;;;26.67;36.99;92287.03;5059310;28;8667;-55
2024/03/03 08:37:09;;;;;;;;;;;;;;;26.65;37.05;92289.63;5081453;28;7038;-55
2024/03/03 08:39:37;;;;;;;;;;;;;;;26.65;37.23;92294.41;5056339;28;7322;-54
2024/03/03 08:42:09;;;;;;;;;;;;;;;26.68;37.36;92296.03;5072441;28;9029;-55
2024/03/03 08:45:09;;;;;;;;;;;;;;;26.70;37.28;92285.16;5076411;28;7164;-56
2024/03/03 08:47:36;;;;;;;;;;;;;;;26.73;37.21;92286.81;5022667;28;7132;-56
2024/03/03 08:50:42;;;;;;;;;;;;;;;26.71;37.02;92283.84;5013947;28;9010;-56
2024/03/03 08:53:29;;;;;;;;;;;;;;;26.69;37.91;92281.66;5016119;28;7182;-56
2024/03/03 08:56:05;;;;;;;;;;;;;;;26.71;37.05;92276.31;5011591;28;7176;-55
2024/03/03 08:58:52;;;;;;;;;;;;;;;26.70;36.82;92274.13;5020647;28;7029;-55
2024/03/03 09:01:33;;;;;;;;;;;;;;;26.71;36.80;92286.59;5015753;28;8916;-55
2024/03/03 09:04:08;;;;;;;;;;;;;;;26.70;37.12;92282.41;5010869;28;8700;-56
2024/03/03 09:06:34;;;;;;;;;;;;;;;26.72;36.40;92277.03;5016487;28;7176;-56
2024/03/03 09:09:04;;;;;;;;;;;;;;;26.70;37.32;92279.66;5013828;28;7029;-56
2024/03/03 09:11:47;;;;;;;;;;;;;;;26.71;37.02;92283.84;4998124;28;7020;-56
2024/03/03 09:14:14;;;;;;;;;;;;;;;26.70;37.11;92279.66;5015656;28;7018;-55
2024/03/03 09:16:56;;;;;;;;;;;;;;;26.71;36.89;92292.84;5013744;28;7230;-56
2024/03/03 09:19:26;;;;;;;;;;;;;;;26.71;36.89;92292.13;4996928;28;7679;-56
2024/03/03 09:22:08;;;;;;;;;;;;;;;26.74;37.05;92291.03;5006925;28;9316;-56
2024/03/03 09:24:34;;;;;;;;;;;;;;;26.73;37.17;92286.81;5058402;28;9126;-55
2024/03/03 09:27:29;;;;;;;;;;;;;;;26.72;37.24;92299.09;5064288;28;9153;-56
2024/03/03 09:30:50;;;;;;;;;;;;;;;26.72;37.12;92277.03;4997467;28;6963;-56
2024/03/03 09:33:16;;;;;;;;;;;;;;;26.71;37.03;92281.81;4972617;28;8559;-56
2024/03/03 09:35:45;;;;;;;;;;;;;;;26.71;37.21;92283.84;4949882;28;7280;-38
2024/03/03 09:38:11;;;;;;;;;;;;;;;26.72;37.16;92283.28;4949775;28;9057;-38
2024/03/03 09:40:39;;;;;;;;;;;;;;;26.71;37.19;92287.34;4953219;28;9400;-38
2024/03/03 09:43:08;;;;;;;;;;;;;;;26.71;36.83;92278.34;4970397;28;7035;-37
2024/03/03 09:45:35;;;;;;;;;;;;;;;26.73;36.78;92273.75;4965770;28;8918;-38
2024/03/03 09:48:02;;;;;;;;;;;;;;;26.71;37.01;92275.56;4972988;28;7347;-38
2024/03/03 09:50:29;;;;;;;;;;;;;;;26.70;37.11;92263.09;4955984;28;7184;-38
2024/03/03 09:53:00;;;;;;;;;;;;;;;26.74;37.09;92282.75;4974014;28;7396;-38
2024/03/03 09:55:30;;;;;;;;;;;;;;;26.73;36.79;92279.25;4956564;28;8244;-38
2024/03/03 09:58:49;;;;;;;;;;;;;;;26.74;37.28;92285.50;4949529;28;7316;-38
2024/03/03 10:01:19;;;;;;;;;;;;;;;26.74;37.08;92268.97;4901028;29;9720;-38
2024/03/03 10:04:16;;;;;;;;;;;;;;;26.74;37.30;92282.75;4916584;29;9103;-38
2024/03/03 10:07:33;;;;;;;;;;;;;;;26.74;37.25;92283.50;4877895;29;7049;-37
2024/03/03 10:10:08;;;;;;;;;;;;;;;26.76;37.09;92271.88;4918660;29;7506;-38
2024/03/03 10:12:48;;;;;;;;;;;;;;;26.75;37.27;92273.19;4921388;29;9161;-38
2024/03/03 10:15:18;;;;;;;;;;;;;;;26.74;37.15;92269.69;4919921;29;9666;-38
2024/03/03 10:17:48;;;;;;;;;;;;;;;26.73;37.36;92278.56;4915178;29;7307;-38
2024/03/03 10:20:15;;;;;;;;;;;;;;;26.73;37.21;92270.28;4899060;29;8367;-38
2024/03/03 10:22:44;;;;;;;;;;;;;;;26.75;37.37;92273.19;4934674;29;7012;-38
2024/03/03 10:25:34;;;;;;;;;;;;;;;26.75;36.96;92275.94;4929361;29;7120;-38
2024/03/03 10:28:15;;;;;;;;;;;;;;;26.76;36.75;92269.84;4912173;29;9642;-38
2024/03/03 10:31:18;;;;;;;;;;;;;;;26.77;37.18;92279.56;4917666;29;9151;-39
2024/03/03 10:33:54;;;;;;;;;;;;;;;26.74;37.45;92269.69;4916410;29;8686;-38
2024/03/03 10:36:21;;;;;;;;;;;;;;;26.74;37.47;92275.22;4990053;28;7607;-37
2024/03/03 10:38:56;;;;;;;;;;;;;;;26.76;37.80;92271.88;4983539;28;7289;-38
2024/03/03 10:41:22;;;;;;;;;;;;;;;26.73;37.24;92273.03;4993260;28;8824;-38
2024/03/03 10:43:59;;;;;;;;;;;;;;;26.73;37.03;92265.47;5037941;28;9428;-41
2024/03/03 10:46:25;;;;;;;;;;;;;;;26.72;37.07;92266.75;5075596;28;7432;-42
2024/03/03 10:48:54;;;;;;;;;;;;;;;26.74;37.01;92275.22;5065839;28;7242;-42
2024/03/03 10:51:21;;;;;;;;;;;;;;;26.74;37.53;92258.66;5057545;28;7158;-42
2024/03/03 10:53:54;;;;;;;;;;;;;;;26.75;37.18;92273.19;5060019;28;7106;-42
2024/03/03 10:56:27;;;;;;;;;;;;;;;26.75;37.35;92268.38;5056090;28;7430;-42
2024/03/03 10:59:10;;;;;;;;;;;;;;;26.73;37.67;92270.97;5065041;28;9023;-42
2024/03/03 11:01:38;;;;;;;;;;;;;;;26.71;37.33;92265.28;5069049;28;7538;-43
2024/03/03 11:04:13;;;;;;;;;;;;;;;26.73;38.04;92262.00;5068882;28;7254;-42
2024/03/03 11:06:42;;;;;;;;;;;;;;;26.77;38.03;92262.31;5056483;28;7358;-41
2024/03/03 11:09:17;;;;;;;;;;;;;;;26.76;38.32;92255.31;5036730;28;9638;-42
2024/03/03 11:11:58;;;;;;;;;;;;;;;26.75;38.15;92249.06;5069560;28;7042;-41
2024/03/03 11:14:55;;;;;;;;;;;;;;;26.76;38.56;92263.59;5046027;28;7036;-41
2024/03/03 11:17:26;;;;;;;;;;;;;;;26.76;38.43;92245.03;5058978;28;7142;-41
2024/03/03 11:19:59;;;;;;;;;;;;;;;26.73;38.49;92248.22;5056001;28;6998;-41
2024/03/03 11:22:48;;;;;;;;;;;;;;;26.75;38.72;92253.88;5059473;28;7356;-42
2024/03/03 11:25:28;;;;;;;;;;;;;;;26.73;38.45;92239.94;5065511;28;7260;-42
2024/03/03 11:28:04;;;;;;;;;;;;;;;26.75;38.23;92251.13;5073726;28;7131;-41
2024/03/03 11:30:36;;;;;;;;;;;;;;;26.73;38.80;92239.94;5073927;28;7263;-42
2024/03/03 11:33:03;;;;;;;;;;;;;;;26.75;38.70;92254.59;5058335;28;7285;-41
2024/03/03 11:35:30;;;;;;;;;;;;;;;26.76;38.80;92247.78;5054521;28;7035;-41
2024/03/03 11:37:56;;;;;;;;;;;;;;;26.75;39.20;92254.59;5070719;28;9169;-42
2024/03/03 11:40:22;;;;;;;;;;;;;;;26.75;38.74;92249.06;5054642;28;7199;-42
2024/03/03 11:43:10;;;;;;;;;;;;;;;26.78;38.38;92230.66;5050366;28;7245;-41
2024/03/03 11:45:45;;;;;;;;;;;;;;;26.78;38.38;92239.69;5056681;28;9018;-42
2024/03/03 11:48:17;;;;;;;;;;;;;;;26.78;39.11;92236.91;5060581;28;9023;-41
2024/03/03 11:54:41;;;;;;;;;;;;;;;26.78;39.07;92230.66;5030149;28;8719;-59
2024/03/03 11:57:17;;;;;;;;;;;;;;;26.79;38.76;92229.38;5032158;28;7059;-60
2024/03/03 12:00:12;;;;;;;;;;;;;;;26.80;38.52;92239.09;5046773;28;7695;-58
2024/03/03 12:02:42;;;;;;;;;;;;;;;26.81;39.07;92232.28;5047667;28;9425;-60
2024/03/03 12:05:14;;;;;;;;;;;;;;;26.84;38.12;92242.16;5030300;28;7031;-58
2024/03/03 12:07:45;;;;;;;;;;;;;;;26.81;38.63;92229.53;5041561;28;7099;-57
2024/03/03 12:10:31;;;;;;;;;;;;;;;26.79;38.75;92227.34;5050303;28;9411;-60
2024/03/03 12:13:07;;;;;;;;;;;;;;;26.78;38.92;92219.63;5063621;28;7318;-60
2024/03/03 12:15:33;;;;;;;;;;;;;;;26.79;38.93;92223.88;5058802;28;9123;-59
2024/03/03 12:18:04;;;;;;;;;;;;;;;26.80;38.90;92217.78;5052504;28;9137;-59
2024/03/03 12:20:33;;;;;;;;;;;;;;;26.81;38.68;92215.75;5050558;28;7204;-60
2024/03/03 12:23:14;;;;;;;;;;;;;;;26.81;38.66;92219.25;5041962;28;8305;-59
2024/03/03 12:25:59;;;;;;;;;;;;;;;26.80;38.51;92212.25;5054686;28;9725;-59
2024/03/03 12:28:38;;;;;;;;;;;;;;;26.85;38.39;92218.81;5051897;28;7352;-59
2024/03/03 12:31:04;;;;;;;;;;;;;;;26.83;38.42;92208.38;5038223;28;7038;-59
2024/03/03 12:33:30;;;;;;;;;;;;;;;26.86;38.59;92223.03;5055455;28;7263;-59
2024/03/03 12:35:56;;;;;;;;;;;;;;;26.85;38.33;92218.81;5086229;28;7020;-59
2024/03/03 12:38:22;;;;;;;;;;;;;;;26.85;38.53;92216.06;5076480;28;6991;-59
2024/03/03 12:41:12;;;;;;;;;;;;;;;26.86;38.51;92207.22;5082734;28;8953;-59
2024/03/03 12:43:58;;;;;;;;;;;;;;;26.84;38.29;92212.56;5080696;28;7066;-59
2024/03/03 12:47:03;;;;;;;;;;;;;;;26.83;38.66;92215.91;5077652;28;7211;-59
2024/03/03 12:49:33;;;;;;;;;;;;;;;26.86;38.92;92218.25;5053576;28;7481;-60
2024/03/03 12:52:07;;;;;;;;;;;;;;;26.86;38.53;92223.03;5053497;28;7212;-60
2024/03/03 12:54:35;;;;;;;;;;;;;;;26.88;38.48;92220.44;5053363;28;7125;-59
2024/03/03 12:57:02;;;;;;;;;;;;;;;26.91;38.81;92227.56;5057539;28;7170;-59
2024/03/03 12:59:38;;;;;;;;;;;;;;;26.94;38.66;92218.16;5073940;28;9036;-59
2024/03/03 13:02:16;;;;;;;;;;;;;;;26.98;38.70;92231.53;5056375;28;7918;-59
2024/03/03 13:04:43;;;;;;;;;;;;;;;26.99;38.64;92219.91;5071355;28;7129;-37
2024/03/03 13:07:10;;;;;;;;;;;;;;;27.02;38.42;92218.78;5076419;28;7203;-37
2024/03/03 13:09:43;;;;;;;;;;;;;;;27.04;38.35;92215.44;5061504;28;7052;-37
2024/03/03 13:12:10;;;;;;;;;;;;;;;27.07;38.24;92219.81;5061713;28;9179;-37
2024/03/03 13:14:37;;;;;;;;;;;;;;;27.07;38.34;92220.56;5064235;28;7354;-37
2024/03/03 13:17:39;;;;;;;;;;;;;;;27.11;37.74;92218.09;5073413;28;6932;-37
2024/03/03 13:20:10;;;;;;;;;;;;;;;27.09;37.67;92198.63;5078731;28;7108;-37
2024/03/03 13:22:37;;;;;;;;;;;;;;;27.13;37.18;92214.75;5071581;28;7299;-37
2024/03/03 13:25:08;;;;;;;;;;;;;;;27.14;37.15;92225.25;5090918;28;7178;-37
2024/03/03 13:28:26;;;;;;;;;;;;;;;27.16;37.01;92208.13;5081052;28;7406;-37
2024/03/03 13:31:05;;;;;;;;;;;;;;;27.15;37.12;92204.63;4999530;28;9464;-37
2024/03/03 13:33:40;;;;;;;;;;;;;;;27.15;37.11;92199.09;4995016;28;8475;-37
2024/03/03 13:36:08;;;;;;;;;;;;;;;27.18;37.02;92209.00;4997545;28;7066;-37
2024/03/03 13:38:35;;;;;;;;;;;;;;;27.19;37.05;92204.94;4977699;28;9104;-37
2024/03/03 13:41:31;;;;;;;;;;;;;;;27.19;37.05;92195.91;4993717;28;9084;-37
2024/03/03 13:44:24;;;;;;;;;;;;;;;27.20;37.09;92214.66;4916396;29;9745;-37
2024/03/03 13:46:57;;;;;;;;;;;;;;;27.19;36.75;92213.19;4899538;29;7257;-37
2024/03/03 13:49:24;;;;;;;;;;;;;;;27.23;37.28;92226.59;4931214;29;7043;-37
2024/03/03 13:51:50;;;;;;;;;;;;;;;27.23;37.23;92213.50;4916033;29;7273;-37